sensor_id;sensor_type;location;lat;lon;timestamp;temperature;humidity
4566;DHT22;2295;51.050;14.608;2022-11-20T00:01:41;-7.00;99.90
4566;DHT22;2295;51.050;14.608;2022-11-20T00:04:11;-7.00;99.90
4566;DHT22;2295;51.050;14.608;2022-11-20T00:06:39;-7.00;99.90
4566;DHT22;2295;51.050;14.608;2022-11-20T00:09:10;-7.00;99.90
4566;DHT22;2295;51.050;14.608;2022-11-20T00:11:39;-7.10;99.90
4566;DHT22;2295;51.050;14.608;2022-11-20T00:14:14;-7.00;99.90
4566;DHT22;2295;51.050;14.608;2022-11-20T00:16:43;-7.00;99.90
4566;DHT22;2295;51.050;14.608;2022-11-20T00:19:12;-6.90;99.90
4566;DHT22;2295;51.050;14.608;2022-11-20T00:21:40;-6.90;99.90
4566;DHT22;2295;51.050;14.608;2022-11-20T00:24:19;-6.90;99.90
4566;DHT22;2295;51.050;14.608;2022-11-20T00:26:48;-6.90;99.90
4566;DHT22;2295;51.050;14.608;2022-11-20T00:29:16;-6.90;99.90
4566;DHT22;2295;51.050;14.608;2022-11-20T00:31:45;-7.00;99.90
4566;DHT22;2295;51.050;14.608;2022-11-20T00:34:15;-7.00;99.90
4566;DHT22;2295;51.050;14.608;2022-11-20T00:36:43;-7.00;99.90
4566;DHT22;2295;51.050;14.608;2022-11-20T00:39:22;-7.10;99.90
4566;DHT22;2295;51.050;14.608;2022-11-20T00:41:51;-7.10;99.90
4566;DHT22;2295;51.050;14.608;2022-11-20T00:44:21;-7.20;99.90
4566;DHT22;2295;51.050;14.608;2022-11-20T00:46:50;-7.20;99.90
4566;DHT22;2295;51.050;14.608;2022-11-20T00:49:22;-7.20;99.90
4566;DHT22;2295;51.050;14.608;2022-11-20T00:51:50;-7.30;99.90
4566;DHT22;2295;51.050;14.608;2022-11-20T00:54:19;-7.30;99.90
4566;DHT22;2295;51.050;14.608;2022-11-20T00:56:52;-7.40;99.90
4566;DHT22;2295;51.050;14.608;2022-11-20T00:59:21;-7.50;99.90
4566;DHT22;2295;51.050;14.608;2022-11-20T01:01:50;-7.40;99.90
4566;DHT22;2295;51.050;14.608;2022-11-20T01:04:19;-7.50;99.90
4566;DHT22;2295;51.050;14.608;2022-11-20T01:06:48;-7.50;99.90
4566;DHT22;2295;51.050;14.608;2022-11-20T01:09:17;-7.50;99.90
4566;DHT22;2295;51.050;14.608;2022-11-20T01:11:46;-7.50;99.90
4566;DHT22;2295;51.050;14.608;2022-11-20T01:14:25;-7.40;99.90
4566;DHT22;2295;51.050;14.608;2022-11-20T01:16:54;-7.50;99.90
4566;DHT22;2295;51.050;14.608;2022-11-20T01:19:25;-7.60;99.90
4566;DHT22;2295;51.050;14.608;2022-11-20T01:21:55;-7.60;99.90
4566;DHT22;2295;51.050;14.608;2022-11-20T01:24:23;-7.70;99.90
4566;DHT22;2295;51.050;14.608;2022-11-20T01:26:52;-7.80;99.90
4566;DHT22;2295;51.050;14.608;2022-11-20T01:29:23;-7.80;99.90
4566;DHT22;2295;51.050;14.608;2022-11-20T01:31:53;-7.80;99.90
4566;DHT22;2295;51.050;14.608;2022-11-20T01:34:25;-7.70;99.90
4566;DHT22;2295;51.050;14.608;2022-11-20T01:36:54;-7.70;99.90
4566;DHT22;2295;51.050;14.608;2022-11-20T01:39:24;-7.70;99.90
4566;DHT22;2295;51.050;14.608;2022-11-20T01:41:56;-7.70;99.90
4566;DHT22;2295;51.050;14.608;2022-11-20T01:44:52;-7.60;99.90
4566;DHT22;2295;51.050;14.608;2022-11-20T01:47:31;-7.60;99.90
4566;DHT22;2295;51.050;14.608;2022-11-20T01:50:10;-7.50;99.90
4566;DHT22;2295;51.050;14.608;2022-11-20T01:52:42;-7.50;99.90
4566;DHT22;2295;51.050;14.608;2022-11-20T01:55:19;-7.50;99.90
4566;DHT22;2295;51.050;14.608;2022-11-20T01:57:48;-7.40;99.90
4566;DHT22;2295;51.050;14.608;2022-11-20T02:00:19;-7.30;99.90
4566;DHT22;2295;51.050;14.608;2022-11-20T02:03:03;-7.20;99.90
4566;DHT22;2295;51.050;14.608;2022-11-20T02:05:35;-7.10;99.90
4566;DHT22;2295;51.050;14.608;2022-11-20T02:08:06;-7.20;99.90
4566;DHT22;2295;51.050;14.608;2022-11-20T02:10:35;-7.10;99.90
4566;DHT22;2295;51.050;14.608;2022-11-20T02:13:07;-7.00;99.90
4566;DHT22;2295;51.050;14.608;2022-11-20T02:16:00;-7.00;99.90
4566;DHT22;2295;51.050;14.608;2022-11-20T02:18:57;-7.00;99.90
4566;DHT22;2295;51.050;14.608;2022-11-20T02:21:47;-7.00;99.90
4566;DHT22;2295;51.050;14.608;2022-11-20T02:24:33;-7.00;99.90
4566;DHT22;2295;51.050;14.608;2022-11-20T02:27:23;-7.10;99.90
4566;DHT22;2295;51.050;14.608;2022-11-20T02:29:54;-7.10;99.90
4566;DHT22;2295;51.050;14.608;2022-11-20T02:32:28;-7.20;99.90
4566;DHT22;2295;51.050;14.608;2022-11-20T02:34:57;-7.30;99.90
4566;DHT22;2295;51.050;14.608;2022-11-20T02:37:31;-7.30;99.90
4566;DHT22;2295;51.050;14.608;2022-11-20T02:40:09;-7.30;99.90
4566;DHT22;2295;51.050;14.608;2022-11-20T02:42:53;-7.30;99.90
4566;DHT22;2295;51.050;14.608;2022-11-20T02:45:23;-7.40;99.90
4566;DHT22;2295;51.050;14.608;2022-11-20T02:47:54;-7.40;99.90
4566;DHT22;2295;51.050;14.608;2022-11-20T02:50:26;-7.40;99.90
4566;DHT22;2295;51.050;14.608;2022-11-20T02:52:55;-7.50;99.90
4566;DHT22;2295;51.050;14.608;2022-11-20T02:55:26;-7.50;99.90
4566;DHT22;2295;51.050;14.608;2022-11-20T02:57:57;-7.60;99.90
4566;DHT22;2295;51.050;14.608;2022-11-20T03:00:28;-7.70;99.90
4566;DHT22;2295;51.050;14.608;2022-11-20T03:02:57;-7.80;99.90
4566;DHT22;2295;51.050;14.608;2022-11-20T03:05:26;-7.80;99.90
4566;DHT22;2295;51.050;14.608;2022-11-20T03:07:55;-7.90;99.90
4566;DHT22;2295;51.050;14.608;2022-11-20T03:10:27;-7.90;99.90
4566;DHT22;2295;51.050;14.608;2022-11-20T03:13:02;-8.00;99.90
4566;DHT22;2295;51.050;14.608;2022-11-20T03:15:33;-8.10;99.90
4566;DHT22;2295;51.050;14.608;2022-11-20T03:18:07;-8.10;99.90
4566;DHT22;2295;51.050;14.608;2022-11-20T03:20:39;-8.10;99.90
4566;DHT22;2295;51.050;14.608;2022-11-20T03:23:11;-8.10;99.90
4566;DHT22;2295;51.050;14.608;2022-11-20T03:25:42;-8.00;99.90
4566;DHT22;2295;51.050;14.608;2022-11-20T03:28:10;-7.70;99.90
4566;DHT22;2295;51.050;14.608;2022-11-20T03:30:42;-7.50;99.90
4566;DHT22;2295;51.050;14.608;2022-11-20T03:33:11;-7.40;99.90
4566;DHT22;2295;51.050;14.608;2022-11-20T03:35:48;-7.30;99.90
4566;DHT22;2295;51.050;14.608;2022-11-20T03:38:37;-7.30;99.90
4566;DHT22;2295;51.050;14.608;2022-11-20T03:41:51;-7.30;99.90
4566;DHT22;2295;51.050;14.608;2022-11-20T03:44:41;-7.40;99.90
4566;DHT22;2295;51.050;14.608;2022-11-20T03:47:23;-7.50;99.90
4566;DHT22;2295;51.050;14.608;2022-11-20T03:50:11;-7.50;99.90
4566;DHT22;2295;51.050;14.608;2022-11-20T03:53:05;-7.50;99.90
4566;DHT22;2295;51.050;14.608;2022-11-20T03:55:45;-7.60;99.90
4566;DHT22;2295;51.050;14.608;2022-11-20T03:58:26;-7.50;99.90
4566;DHT22;2295;51.050;14.608;2022-11-20T04:01:25;-7.50;99.90
4566;DHT22;2295;51.050;14.608;2022-11-20T04:04:29;-7.40;99.90
4566;DHT22;2295;51.050;14.608;2022-11-20T04:06:58;-7.30;99.90
4566;DHT22;2295;51.050;14.608;2022-11-20T04:09:32;-7.30;99.90
4566;DHT22;2295;51.050;14.608;2022-11-20T04:12:17;-7.20;99.90
4566;DHT22;2295;51.050;14.608;2022-11-20T04:14:55;-7.10;99.90
4566;DHT22;2295;51.050;14.608;2022-11-20T04:17:58;-7.00;99.90
4566;DHT22;2295;51.050;14.608;2022-11-20T04:20:34;-7.10;99.90
4566;DHT22;2295;51.050;14.608;2022-11-20T04:23:17;-7.10;99.90
4566;DHT22;2295;51.050;14.608;2022-11-20T04:26:04;-7.20;99.90
4566;DHT22;2295;51.050;14.608;2022-11-20T04:29:09;-7.20;99.90
4566;DHT22;2295;51.050;14.608;2022-11-20T04:32:01;-7.20;99.90
4566;DHT22;2295;51.050;14.608;2022-11-20T04:34:43;-7.30;99.90
4566;DHT22;2295;51.050;14.608;2022-11-20T04:37:21;-7.20;99.90
4566;DHT22;2295;51.050;14.608;2022-11-20T04:39:52;-7.20;99.90
4566;DHT22;2295;51.050;14.608;2022-11-20T04:42:21;-7.20;99.90
4566;DHT22;2295;51.050;14.608;2022-11-20T04:44:58;-7.10;99.90
4566;DHT22;2295;51.050;14.608;2022-11-20T04:47:28;-7.00;99.90
4566;DHT22;2295;51.050;14.608;2022-11-20T04:49:59;-7.00;99.90
4566;DHT22;2295;51.050;14.608;2022-11-20T04:52:44;-7.00;99.90
4566;DHT22;2295;51.050;14.608;2022-11-20T04:55:16;-7.00;99.90
4566;DHT22;2295;51.050;14.608;2022-11-20T04:57:50;-7.10;99.90
4566;DHT22;2295;51.050;14.608;2022-11-20T05:00:19;-7.20;99.90
4566;DHT22;2295;51.050;14.608;2022-11-20T05:02:49;-7.20;99.90
4566;DHT22;2295;51.050;14.608;2022-11-20T05:05:18;-7.20;99.90
4566;DHT22;2295;51.050;14.608;2022-11-20T05:07:52;-7.30;99.90
4566;DHT22;2295;51.050;14.608;2022-11-20T05:10:21;-7.40;99.90
4566;DHT22;2295;51.050;14.608;2022-11-20T05:12:53;-7.50;99.90
4566;DHT22;2295;51.050;14.608;2022-11-20T05:15:22;-7.60;99.90
4566;DHT22;2295;51.050;14.608;2022-11-20T05:17:52;-7.60;99.90
4566;DHT22;2295;51.050;14.608;2022-11-20T05:20:25;-7.70;99.90
4566;DHT22;2295;51.050;14.608;2022-11-20T05:22:56;-7.80;99.90
4566;DHT22;2295;51.050;14.608;2022-11-20T05:25:25;-7.80;99.90
4566;DHT22;2295;51.050;14.608;2022-11-20T05:27:54;-7.90;99.90
4566;DHT22;2295;51.050;14.608;2022-11-20T05:30:28;-7.90;99.90
4566;DHT22;2295;51.050;14.608;2022-11-20T05:33:16;-8.00;99.90
4566;DHT22;2295;51.050;14.608;2022-11-20T05:36:18;-8.00;99.90
4566;DHT22;2295;51.050;14.608;2022-11-20T05:39:16;-8.00;99.90
4566;DHT22;2295;51.050;14.608;2022-11-20T05:42:06;-8.10;99.90
4566;DHT22;2295;51.050;14.608;2022-11-20T05:44:52;-8.00;99.90
4566;DHT22;2295;51.050;14.608;2022-11-20T05:47:21;-7.80;99.90
4566;DHT22;2295;51.050;14.608;2022-11-20T05:49:51;-7.70;99.90
4566;DHT22;2295;51.050;14.608;2022-11-20T05:52:20;-7.50;99.90
4566;DHT22;2295;51.050;14.608;2022-11-20T05:54:50;-7.40;99.90
4566;DHT22;2295;51.050;14.608;2022-11-20T05:57:21;-7.30;99.90
4566;DHT22;2295;51.050;14.608;2022-11-20T05:59:50;-7.30;99.90
4566;DHT22;2295;51.050;14.608;2022-11-20T06:02:19;-7.30;99.90
4566;DHT22;2295;51.050;14.608;2022-11-20T06:04:52;-7.30;99.90
4566;DHT22;2295;51.050;14.608;2022-11-20T06:07:26;-7.30;99.90
4566;DHT22;2295;51.050;14.608;2022-11-20T06:09:55;-7.30;99.90
4566;DHT22;2295;51.050;14.608;2022-11-20T06:12:24;-7.40;99.90
4566;DHT22;2295;51.050;14.608;2022-11-20T06:14:56;-7.40;99.90
4566;DHT22;2295;51.050;14.608;2022-11-20T06:17:25;-7.40;99.90
4566;DHT22;2295;51.050;14.608;2022-11-20T06:19:58;-7.50;99.90
4566;DHT22;2295;51.050;14.608;2022-11-20T06:22:30;-7.60;99.90
4566;DHT22;2295;51.050;14.608;2022-11-20T06:25:18;-7.70;99.90
4566;DHT22;2295;51.050;14.608;2022-11-20T06:28:03;-7.80;99.90
4566;DHT22;2295;51.050;14.608;2022-11-20T06:30:32;-7.80;99.90
4566;DHT22;2295;51.050;14.608;2022-11-20T06:33:04;-7.80;99.90
4566;DHT22;2295;51.050;14.608;2022-11-20T06:35:34;-7.80;99.90
4566;DHT22;2295;51.050;14.608;2022-11-20T06:38:07;-7.90;99.90
4566;DHT22;2295;51.050;14.608;2022-11-20T06:40:44;-7.90;99.90
4566;DHT22;2295;51.050;14.608;2022-11-20T06:43:16;-8.00;99.90
4566;DHT22;2295;51.050;14.608;2022-11-20T06:45:45;-8.00;99.90
4566;DHT22;2295;51.050;14.608;2022-11-20T06:48:17;-8.00;99.90
4566;DHT22;2295;51.050;14.608;2022-11-20T06:50:53;-7.90;99.90
4566;DHT22;2295;51.050;14.608;2022-11-20T06:53:41;-7.80;99.90
4566;DHT22;2295;51.050;14.608;2022-11-20T06:56:10;-7.70;99.90
4566;DHT22;2295;51.050;14.608;2022-11-20T06:58:38;-7.60;99.90
4566;DHT22;2295;51.050;14.608;2022-11-20T07:01:09;-7.40;99.90
4566;DHT22;2295;51.050;14.608;2022-11-20T07:03:39;-7.20;99.90
4566;DHT22;2295;51.050;14.608;2022-11-20T07:06:10;-7.20;99.90
4566;DHT22;2295;51.050;14.608;2022-11-20T07:08:39;-7.10;99.90
4566;DHT22;2295;51.050;14.608;2022-11-20T07:11:12;-7.00;99.90
4566;DHT22;2295;51.050;14.608;2022-11-20T07:13:41;-7.00;99.90
4566;DHT22;2295;51.050;14.608;2022-11-20T07:16:12;-6.90;99.90
4566;DHT22;2295;51.050;14.608;2022-11-20T07:18:50;-6.70;99.90
4566;DHT22;2295;51.050;14.608;2022-11-20T07:21:22;-6.50;99.90
4566;DHT22;2295;51.050;14.608;2022-11-20T07:23:51;-6.30;99.90
4566;DHT22;2295;51.050;14.608;2022-11-20T07:26:20;-6.10;99.90
4566;DHT22;2295;51.050;14.608;2022-11-20T07:28:54;-5.90;99.90
4566;DHT22;2295;51.050;14.608;2022-11-20T07:31:26;-5.70;99.90
4566;DHT22;2295;51.050;14.608;2022-11-20T07:33:59;-5.50;99.90
4566;DHT22;2295;51.050;14.608;2022-11-20T07:36:32;-5.50;99.90
4566;DHT22;2295;51.050;14.608;2022-11-20T07:39:01;-5.30;99.90
4566;DHT22;2295;51.050;14.608;2022-11-20T07:41:29;-5.20;99.90
4566;DHT22;2295;51.050;14.608;2022-11-20T07:43:58;-5.10;99.90
4566;DHT22;2295;51.050;14.608;2022-11-20T07:47:02;-4.90;99.90
4566;DHT22;2295;51.050;14.608;2022-11-20T07:50:04;-4.80;99.90
4566;DHT22;2295;51.050;14.608;2022-11-20T07:52:35;-4.70;99.90
4566;DHT22;2295;51.050;14.608;2022-11-20T07:55:04;-4.60;99.90
4566;DHT22;2295;51.050;14.608;2022-11-20T07:57:33;-4.50;99.90
4566;DHT22;2295;51.050;14.608;2022-11-20T08:00:13;-4.40;99.90
4566;DHT22;2295;51.050;14.608;2022-11-20T08:02:50;-4.40;99.90
4566;DHT22;2295;51.050;14.608;2022-11-20T08:06:00;-4.30;99.90
4566;DHT22;2295;51.050;14.608;2022-11-20T08:08:48;-4.20;99.90
4566;DHT22;2295;51.050;14.608;2022-11-20T08:11:22;-4.20;99.90
4566;DHT22;2295;51.050;14.608;2022-11-20T08:14:14;-4.10;99.90
4566;DHT22;2295;51.050;14.608;2022-11-20T08:16:59;-4.10;99.90
4566;DHT22;2295;51.050;14.608;2022-11-20T08:19:30;-4.00;99.90
4566;DHT22;2295;51.050;14.608;2022-11-20T08:22:01;-4.00;99.90
4566;DHT22;2295;51.050;14.608;2022-11-20T08:24:31;-4.00;99.90
4566;DHT22;2295;51.050;14.608;2022-11-20T08:27:09;-3.90;99.90
4566;DHT22;2295;51.050;14.608;2022-11-20T08:29:47;-3.80;99.90
4566;DHT22;2295;51.050;14.608;2022-11-20T08:32:20;-3.70;99.90
4566;DHT22;2295;51.050;14.608;2022-11-20T08:34:56;-3.60;99.90
4566;DHT22;2295;51.050;14.608;2022-11-20T08:37:27;-3.60;99.90
4566;DHT22;2295;51.050;14.608;2022-11-20T08:39:59;-3.50;99.90
4566;DHT22;2295;51.050;14.608;2022-11-20T08:42:27;-3.40;99.90
4566;DHT22;2295;51.050;14.608;2022-11-20T08:44:59;-3.30;99.90
4566;DHT22;2295;51.050;14.608;2022-11-20T08:47:38;-3.30;99.90
4566;DHT22;2295;51.050;14.608;2022-11-20T08:50:11;-3.20;99.90
4566;DHT22;2295;51.050;14.608;2022-11-20T08:52:44;-3.30;99.90
4566;DHT22;2295;51.050;14.608;2022-11-20T08:55:14;-3.30;99.90
4566;DHT22;2295;51.050;14.608;2022-11-20T08:57:54;-3.30;99.90
4566;DHT22;2295;51.050;14.608;2022-11-20T09:00:23;-3.30;99.90
4566;DHT22;2295;51.050;14.608;2022-11-20T09:02:54;-3.20;99.90
4566;DHT22;2295;51.050;14.608;2022-11-20T09:05:23;-3.10;99.90
4566;DHT22;2295;51.050;14.608;2022-11-20T09:07:52;-3.10;99.90
4566;DHT22;2295;51.050;14.608;2022-11-20T09:10:26;-3.10;99.90
4566;DHT22;2295;51.050;14.608;2022-11-20T09:12:57;-3.10;99.90
4566;DHT22;2295;51.050;14.608;2022-11-20T09:15:26;-3.10;99.90
4566;DHT22;2295;51.050;14.608;2022-11-20T09:17:57;-3.00;99.90
4566;DHT22;2295;51.050;14.608;2022-11-20T09:20:27;-2.90;99.90
4566;DHT22;2295;51.050;14.608;2022-11-20T09:22:59;-2.90;99.90
4566;DHT22;2295;51.050;14.608;2022-11-20T09:25:30;-2.80;99.90
4566;DHT22;2295;51.050;14.608;2022-11-20T09:28:03;-2.90;99.90
4566;DHT22;2295;51.050;14.608;2022-11-20T09:30:43;-2.90;99.90
4566;DHT22;2295;51.050;14.608;2022-11-20T09:33:15;-2.70;99.90
4566;DHT22;2295;51.050;14.608;2022-11-20T09:35:47;-2.70;99.90
4566;DHT22;2295;51.050;14.608;2022-11-20T09:38:30;-2.60;99.90
4566;DHT22;2295;51.050;14.608;2022-11-20T09:41:04;-2.50;99.90
4566;DHT22;2295;51.050;14.608;2022-11-20T09:43:45;-2.50;99.90
4566;DHT22;2295;51.050;14.608;2022-11-20T09:46:23;-2.30;99.90
4566;DHT22;2295;51.050;14.608;2022-11-20T09:49:07;-2.40;99.90
4566;DHT22;2295;51.050;14.608;2022-11-20T09:51:51;-2.40;99.90
4566;DHT22;2295;51.050;14.608;2022-11-20T09:54:25;-2.40;99.90
4566;DHT22;2295;51.050;14.608;2022-11-20T09:57:00;-2.40;99.90
4566;DHT22;2295;51.050;14.608;2022-11-20T09:59:35;-2.40;99.90
4566;DHT22;2295;51.050;14.608;2022-11-20T10:02:15;-2.40;99.90
4566;DHT22;2295;51.050;14.608;2022-11-20T10:04:47;-2.50;99.90
4566;DHT22;2295;51.050;14.608;2022-11-20T10:07:21;-2.50;99.90
4566;DHT22;2295;51.050;14.608;2022-11-20T10:09:59;-2.60;99.90
4566;DHT22;2295;51.050;14.608;2022-11-20T10:12:45;-2.60;99.90
4566;DHT22;2295;51.050;14.608;2022-11-20T10:15:26;-2.50;99.90
4566;DHT22;2295;51.050;14.608;2022-11-20T10:18:21;-2.60;99.90
4566;DHT22;2295;51.050;14.608;2022-11-20T10:21:02;-2.60;99.90
4566;DHT22;2295;51.050;14.608;2022-11-20T10:23:56;-2.60;99.90
4566;DHT22;2295;51.050;14.608;2022-11-20T10:26:39;-2.50;99.90
4566;DHT22;2295;51.050;14.608;2022-11-20T10:29:32;-2.40;99.90
4566;DHT22;2295;51.050;14.608;2022-11-20T10:32:03;-2.30;99.90
4566;DHT22;2295;51.050;14.608;2022-11-20T10:34:37;-2.20;99.90
4566;DHT22;2295;51.050;14.608;2022-11-20T10:37:12;-2.10;99.90
4566;DHT22;2295;51.050;14.608;2022-11-20T10:39:47;-2.10;99.90
4566;DHT22;2295;51.050;14.608;2022-11-20T10:42:29;-2.10;99.90
4566;DHT22;2295;51.050;14.608;2022-11-20T10:45:13;-2.20;99.90
4566;DHT22;2295;51.050;14.608;2022-11-20T10:47:54;-2.40;99.90
4566;DHT22;2295;51.050;14.608;2022-11-20T10:50:25;-2.60;99.90
4566;DHT22;2295;51.050;14.608;2022-11-20T10:52:59;-2.60;99.90
4566;DHT22;2295;51.050;14.608;2022-11-20T10:55:40;-2.70;99.90
4566;DHT22;2295;51.050;14.608;2022-11-20T10:58:28;-2.60;99.90
4566;DHT22;2295;51.050;14.608;2022-11-20T11:01:11;-2.50;99.90
4566;DHT22;2295;51.050;14.608;2022-11-20T11:03:42;-2.40;99.90
4566;DHT22;2295;51.050;14.608;2022-11-20T11:06:19;-2.30;99.90
4566;DHT22;2295;51.050;14.608;2022-11-20T11:08:54;-2.20;99.90
4566;DHT22;2295;51.050;14.608;2022-11-20T11:11:28;-2.10;99.90
4566;DHT22;2295;51.050;14.608;2022-11-20T11:14:05;-2.20;99.90
4566;DHT22;2295;51.050;14.608;2022-11-20T11:16:49;-2.30;99.90
4566;DHT22;2295;51.050;14.608;2022-11-20T11:19:18;-2.40;99.90
4566;DHT22;2295;51.050;14.608;2022-11-20T11:21:50;-2.60;99.90
4566;DHT22;2295;51.050;14.608;2022-11-20T11:24:38;-2.60;99.90
4566;DHT22;2295;51.050;14.608;2022-11-20T11:27:12;-2.60;99.90
4566;DHT22;2295;51.050;14.608;2022-11-20T11:29:44;-2.60;99.90
4566;DHT22;2295;51.050;14.608;2022-11-20T11:32:18;-2.60;99.90
4566;DHT22;2295;51.050;14.608;2022-11-20T11:35:06;-2.60;99.90
4566;DHT22;2295;51.050;14.608;2022-11-20T11:38:10;-2.50;99.90
4566;DHT22;2295;51.050;14.608;2022-11-20T11:40:43;-2.50;99.90
4566;DHT22;2295;51.050;14.608;2022-11-20T11:43:23;-2.50;99.90
4566;DHT22;2295;51.050;14.608;2022-11-20T11:46:40;-2.50;99.90
4566;DHT22;2295;51.050;14.608;2022-11-20T11:49:35;-2.40;99.90
4566;DHT22;2295;51.050;14.608;2022-11-20T11:52:14;-2.50;99.90
4566;DHT22;2295;51.050;14.608;2022-11-20T11:54:53;-2.40;99.90
4566;DHT22;2295;51.050;14.608;2022-11-20T11:57:28;-2.40;99.90
4566;DHT22;2295;51.050;14.608;2022-11-20T12:00:03;-2.30;99.90
4566;DHT22;2295;51.050;14.608;2022-11-20T12:02:41;-2.30;99.90
4566;DHT22;2295;51.050;14.608;2022-11-20T12:05:36;-2.20;99.90
4566;DHT22;2295;51.050;14.608;2022-11-20T12:08:19;-2.20;99.90
4566;DHT22;2295;51.050;14.608;2022-11-20T12:10:56;-2.30;99.90
4566;DHT22;2295;51.050;14.608;2022-11-20T12:13:44;-2.20;99.90
4566;DHT22;2295;51.050;14.608;2022-11-20T12:16:27;-2.20;99.90
4566;DHT22;2295;51.050;14.608;2022-11-20T12:18:59;-2.20;99.90
4566;DHT22;2295;51.050;14.608;2022-11-20T12:21:40;-2.20;99.90
4566;DHT22;2295;51.050;14.608;2022-11-20T12:24:52;-2.10;99.90
4566;DHT22;2295;51.050;14.608;2022-11-20T12:28:09;-2.10;99.90
4566;DHT22;2295;51.050;14.608;2022-11-20T12:30:52;-2.10;99.90
4566;DHT22;2295;51.050;14.608;2022-11-20T12:33:47;-2.00;99.90
4566;DHT22;2295;51.050;14.608;2022-11-20T12:36:30;-2.00;99.90
4566;DHT22;2295;51.050;14.608;2022-11-20T12:39:22;-2.00;99.90
4566;DHT22;2295;51.050;14.608;2022-11-20T12:45:20;-1.90;99.90
4566;DHT22;2295;51.050;14.608;2022-11-20T12:47:59;-1.90;99.90
4566;DHT22;2295;51.050;14.608;2022-11-20T12:50:39;-1.90;99.90
4566;DHT22;2295;51.050;14.608;2022-11-20T12:53:38;-1.90;99.90
4566;DHT22;2295;51.050;14.608;2022-11-20T12:56:17;-1.90;99.90
4566;DHT22;2295;51.050;14.608;2022-11-20T12:59:05;-1.90;99.90
4566;DHT22;2295;51.050;14.608;2022-11-20T13:01:40;-1.90;99.90
4566;DHT22;2295;51.050;14.608;2022-11-20T13:04:24;-1.90;99.90
4566;DHT22;2295;51.050;14.608;2022-11-20T13:06:58;-1.90;99.90
4566;DHT22;2295;51.050;14.608;2022-11-20T13:09:30;-1.90;99.90
4566;DHT22;2295;51.050;14.608;2022-11-20T13:12:05;-2.00;99.90
4566;DHT22;2295;51.050;14.608;2022-11-20T13:14:37;-2.00;99.90
4566;DHT22;2295;51.050;14.608;2022-11-20T13:17:13;-1.90;99.90
4566;DHT22;2295;51.050;14.608;2022-11-20T13:19:53;-2.00;99.90
4566;DHT22;2295;51.050;14.608;2022-11-20T13:22:26;-2.10;99.90
4566;DHT22;2295;51.050;14.608;2022-11-20T13:25:27;-2.10;99.90
4566;DHT22;2295;51.050;14.608;2022-11-20T13:27:58;-2.10;99.90
4566;DHT22;2295;51.050;14.608;2022-11-20T13:30:28;-2.10;99.90
4566;DHT22;2295;51.050;14.608;2022-11-20T13:33:01;-2.10;99.90
4566;DHT22;2295;51.050;14.608;2022-11-20T13:35:55;-2.10;99.90
4566;DHT22;2295;51.050;14.608;2022-11-20T13:38:24;-2.10;99.90
4566;DHT22;2295;51.050;14.608;2022-11-20T13:41:03;-2.10;99.90
4566;DHT22;2295;51.050;14.608;2022-11-20T13:44:04;-2.00;99.90
4566;DHT22;2295;51.050;14.608;2022-11-20T13:46:46;-2.00;99.90
4566;DHT22;2295;51.050;14.608;2022-11-20T13:49:18;-1.90;99.90
4566;DHT22;2295;51.050;14.608;2022-11-20T13:51:56;-1.90;99.90
4566;DHT22;2295;51.050;14.608;2022-11-20T13:54:51;-1.80;99.90
4566;DHT22;2295;51.050;14.608;2022-11-20T14:00:33;-1.70;99.90
4566;DHT22;2295;51.050;14.608;2022-11-20T14:03:18;-1.60;99.90
4566;DHT22;2295;51.050;14.608;2022-11-20T14:06:13;-1.60;99.90
4566;DHT22;2295;51.050;14.608;2022-11-20T14:08:45;-1.60;99.90
4566;DHT22;2295;51.050;14.608;2022-11-20T14:11:22;-1.60;99.90
4566;DHT22;2295;51.050;14.608;2022-11-20T14:13:56;-1.60;99.90
4566;DHT22;2295;51.050;14.608;2022-11-20T14:16:30;-1.60;99.90
4566;DHT22;2295;51.050;14.608;2022-11-20T14:22:15;-1.70;99.90
4566;DHT22;2295;51.050;14.608;2022-11-20T14:24:47;-1.70;99.90
4566;DHT22;2295;51.050;14.608;2022-11-20T14:27:18;-1.80;99.90
4566;DHT22;2295;51.050;14.608;2022-11-20T14:29:50;-1.80;99.90
4566;DHT22;2295;51.050;14.608;2022-11-20T14:32:23;-1.80;99.90
4566;DHT22;2295;51.050;14.608;2022-11-20T14:34:59;-1.80;99.90
4566;DHT22;2295;51.050;14.608;2022-11-20T14:37:33;-1.80;99.90
4566;DHT22;2295;51.050;14.608;2022-11-20T14:40:21;-1.80;99.90
4566;DHT22;2295;51.050;14.608;2022-11-20T14:42:52;-1.80;99.90
4566;DHT22;2295;51.050;14.608;2022-11-20T14:45:35;-1.80;99.90
4566;DHT22;2295;51.050;14.608;2022-11-20T14:48:08;-1.80;99.90
4566;DHT22;2295;51.050;14.608;2022-11-20T14:50:38;-1.80;99.90
4566;DHT22;2295;51.050;14.608;2022-11-20T14:53:10;-1.90;99.90
4566;DHT22;2295;51.050;14.608;2022-11-20T14:55:38;-1.90;99.90
4566;DHT22;2295;51.050;14.608;2022-11-20T14:58:26;-1.90;99.90
4566;DHT22;2295;51.050;14.608;2022-11-20T15:01:02;-1.90;99.90
4566;DHT22;2295;51.050;14.608;2022-11-20T15:03:34;-1.90;99.90
4566;DHT22;2295;51.050;14.608;2022-11-20T15:06:12;-1.90;99.90
4566;DHT22;2295;51.050;14.608;2022-11-20T15:08:50;-2.00;99.90
4566;DHT22;2295;51.050;14.608;2022-11-20T15:11:20;-1.90;99.90
4566;DHT22;2295;51.050;14.608;2022-11-20T15:13:57;-2.00;99.90
4566;DHT22;2295;51.050;14.608;2022-11-20T15:16:26;-1.90;99.90
4566;DHT22;2295;51.050;14.608;2022-11-20T15:19:00;-1.90;99.90
4566;DHT22;2295;51.050;14.608;2022-11-20T15:21:30;-1.90;99.90
4566;DHT22;2295;51.050;14.608;2022-11-20T15:23:58;-2.00;99.90
4566;DHT22;2295;51.050;14.608;2022-11-20T15:26:29;-2.10;99.90
4566;DHT22;2295;51.050;14.608;2022-11-20T15:29:01;-2.20;99.90
4566;DHT22;2295;51.050;14.608;2022-11-20T15:31:29;-2.20;99.90
4566;DHT22;2295;51.050;14.608;2022-11-20T15:34:02;-2.20;99.90
4566;DHT22;2295;51.050;14.608;2022-11-20T15:36:33;-2.40;99.90
4566;DHT22;2295;51.050;14.608;2022-11-20T15:39:02;-2.50;99.90
4566;DHT22;2295;51.050;14.608;2022-11-20T15:41:37;-2.50;99.90
4566;DHT22;2295;51.050;14.608;2022-11-20T15:44:08;-2.70;99.90
4566;DHT22;2295;51.050;14.608;2022-11-20T15:46:42;-2.70;99.90
4566;DHT22;2295;51.050;14.608;2022-11-20T15:49:15;-2.90;99.90
4566;DHT22;2295;51.050;14.608;2022-11-20T15:51:48;-3.00;99.90
4566;DHT22;2295;51.050;14.608;2022-11-20T15:54:18;-3.10;99.90
4566;DHT22;2295;51.050;14.608;2022-11-20T15:56:49;-3.10;99.90
4566;DHT22;2295;51.050;14.608;2022-11-20T15:59:19;-3.10;99.90
4566;DHT22;2295;51.050;14.608;2022-11-20T16:01:47;-3.10;99.90
4566;DHT22;2295;51.050;14.608;2022-11-20T16:04:17;-3.10;99.90
4566;DHT22;2295;51.050;14.608;2022-11-20T16:06:46;-3.00;99.90
4566;DHT22;2295;51.050;14.608;2022-11-20T16:09:15;-3.00;99.90
4566;DHT22;2295;51.050;14.608;2022-11-20T16:11:43;-3.00;99.90
4566;DHT22;2295;51.050;14.608;2022-11-20T16:14:12;-3.00;99.90
4566;DHT22;2295;51.050;14.608;2022-11-20T16:17:12;-3.00;99.90
4566;DHT22;2295;51.050;14.608;2022-11-20T16:19:45;-3.10;99.90
4566;DHT22;2295;51.050;14.608;2022-11-20T16:22:13;-3.20;99.90
4566;DHT22;2295;51.050;14.608;2022-11-20T16:24:45;-3.20;99.90
4566;DHT22;2295;51.050;14.608;2022-11-20T16:27:17;-3.20;99.90
4566;DHT22;2295;51.050;14.608;2022-11-20T16:29:47;-3.10;99.90
4566;DHT22;2295;51.050;14.608;2022-11-20T16:32:18;-3.10;99.90
4566;DHT22;2295;51.050;14.608;2022-11-20T16:34:52;-3.00;99.90
4566;DHT22;2295;51.050;14.608;2022-11-20T16:37:21;-3.00;99.90
4566;DHT22;2295;51.050;14.608;2022-11-20T16:39:54;-3.00;99.90
4566;DHT22;2295;51.050;14.608;2022-11-20T16:42:33;-3.10;99.90
4566;DHT22;2295;51.050;14.608;2022-11-20T16:45:01;-3.00;99.90
4566;DHT22;2295;51.050;14.608;2022-11-20T16:47:35;-3.10;99.90
4566;DHT22;2295;51.050;14.608;2022-11-20T16:50:06;-3.20;99.90
4566;DHT22;2295;51.050;14.608;2022-11-20T16:52:35;-3.30;99.90